Nearby METAR Reports

 

KSJC - San Jose, California, USA
Distance from station: NE 9mi, 14km
Updated: Sat, 24-Feb-2024 11:53am CST
Few Clouds
Few Clouds
 Wind from calm
Wind: Calm
Temperature: 61°F , 16°C
Dew Point: 45°F , 7°C
Humidity: 55%
Barometer: 30.07 inHg , 1018.3 hPa
Clouds: Few Clouds
Visibility: 10 miles , 16 km
Cloud details: Few Clouds 6000 ft
2024/02/24 17:53 KSJC 241753Z 00000KT 10SM FEW060 16/07 A3007 RMK AO2 SLP180 T01610072 10161 20078 51005
KNUQ - Moffett Nas/Mtn, California, USA
Distance from station: N 9mi, 14km
Updated: Sat, 24-Feb-2024 11:55am CST
Clear
Clear
 Wind from calm
Wind: Calm
Temperature: 59°F , 15°C
Dew Point: 46°F , 8°C
Humidity: 63%
Barometer: 30.07 inHg , 1018.3 hPa
Clouds: Clear
Visibility: 10 miles , 16 km
2024/02/24 17:55 KNUQ 241755Z AUTO 00000KT 10SM CLR 15/08 A3007 RMK AO2
 
KPAO - Palo Alto, California, USA
Distance from station: NNW 14mi, 23km
Updated: Sat, 24-Feb-2024 11:47am CST
Clear
Clear
 Wind from varies
Wind: varies 3 mph , 6 km/h
Temperature: 57°F , 14°C
Dew Point: 45°F , 7°C
Humidity: 63%
Barometer: 30.07 inHg , 1018.3 hPa
Clouds: Clear
Visibility: 10 miles , 16 km
2024/02/24 17:47 KPAO 241747Z VRB03KT 10SM SKC 14/07 A3007
KRHV - San Jose/Reid, California, USA
Distance from station: ENE 12mi, 19km
Updated: Sat, 24-Feb-2024 11:47am CST
Few Clouds
Few Clouds
 Wind from calm
Wind: Calm
Temperature: 59°F , 15°C
Dew Point: 45°F , 7°C
Humidity: 59%
Barometer: 30.07 inHg , 1018.3 hPa
Clouds: Few Clouds
Visibility: 10 miles , 16 km
Cloud details: Few Clouds 6000 ft
2024/02/24 17:47 KRHV 241747Z 00000KT 10SM FEW060 15/07 A3007
 
KOAK - Oakland, California, USA
Distance from station: NNW 31mi, 50km
Updated: Sat, 24-Feb-2024 11:53am CST
Few Clouds
Few Clouds
 Wind from SW
Wind: SW 3 mph , 6 km/h
Temperature: 57°F , 14°C
Dew Point: 52°F , 11°C
Humidity: 82%
Barometer: 30.08 inHg , 1018.6 hPa
Clouds: Few Clouds
Visibility: 10 miles , 16 km
Cloud details: Few Clouds 6500 ft
Few Clouds 18000 ft
2024/02/24 17:53 KOAK 241753Z 23003KT 10SM FEW065 FEW180 14/11 A3008 RMK AO2 SLP187 T01390111 10144 20072 51010
KSQL - San Carlos Airpo, California, USA
Distance from station: NW 21mi, 34km
Updated: Sat, 24-Feb-2024 11:49am CST
Clear
Clear
 Wind from calm
Wind: Calm
Temperature: 59°F , 15°C
Dew Point: 48°F , 9°C
Humidity: 68%
Barometer: 30.08 inHg , 1018.6 hPa
Clouds: Clear
Visibility: 10 miles , 16 km
2024/02/24 17:49 KSQL 241749Z 00000KT 10SM CLR 15/09 A3008
 
KSFO - San Francisco, California, USA
Distance from station: NW 30mi, 49km
Updated: Sat, 24-Feb-2024 11:56am CST
Few Clouds
Few Clouds
 Wind from ENE
Wind: ENE 3 mph , 6 km/h
Temperature: 57°F , 14°C
Dew Point: 52°F , 11°C
Humidity: 82%
Barometer: 30.07 inHg , 1018.3 hPa
Clouds: Few Clouds
Visibility: 10 miles , 16 km
Cloud details: Few Clouds 20000 ft
2024/02/24 17:56 KSFO 241756Z 07003KT 10SM FEW200 14/11 A3007 RMK AO2 SLP182 T01390106 10144 20089 51008 $
KE16 - San Martin, California, USA
Distance from station: ESE 27mi, 43km
Updated: Sat, 24-Feb-2024 11:55am CST
Clear
Clear
 Wind from calm
Wind: Calm
Temperature: 55°F , 13°C
Dew Point: 45°F , 7°C
Humidity: 67%
Barometer: 30.08 inHg , 1018.6 hPa
Clouds: Clear
Visibility: 10 miles , 16 km
2024/02/24 17:55 KE16 241755Z AUTO 00000KT 10SM CLR 13/07 A3008 RMK AO2 PWINO PNO
 
KWVI - Watsonville, California, USA
Distance from station: SSE 27mi, 44km
Updated: Sat, 24-Feb-2024 11:53am CST
Clear
Clear
 Wind from varies
Wind: varies 3 mph , 6 km/h
Temperature: 61°F , 16°C
Dew Point: 45°F , 7°C
Humidity: 55%
Barometer: 30.06 inHg , 1017.9 hPa
Clouds: Clear
Visibility: 10 miles , 16 km
2024/02/24 17:53 KWVI 241753Z AUTO VRB03KT 10SM CLR 16/07 A3006 RMK AO2 SLP177 T01610072 10161 20078 51006
KHAF - Half Moon Bay, California, USA
Distance from station: WNW 31mi, 50km
Updated: Sat, 24-Feb-2024 11:55am CST
Clear
Clear
 Wind from W
Wind: W 7 mph , 11 km/h
Temperature: 64°F , 18°C
Dew Point: 43°F , 6°C
Humidity: 46%
Barometer: 30.04 inHg , 1017.3 hPa
Clouds: Clear
Visibility: 8 miles , 13 km
2024/02/24 17:55 KHAF 241755Z AUTO 28006KT 8SM CLR 18/06 A3004 RMK AO2
 
KHWD - Hayward, California, USA
Distance from station: N 28mi, 44km
Updated: Sat, 24-Feb-2024 11:54am CST
Clear
Clear
 Wind from calm
Wind: Calm
Temperature: 61°F , 16°C
Dew Point: 50°F , 10°C
Humidity: 68%
Barometer: 30.07 inHg , 1018.3 hPa
Clouds: Clear
Visibility: 10 miles , 16 km
2024/02/24 17:54 KHWD 241754Z 00000KT 10SM CLR 16/10 A3007 RMK AO2 SLP191 T01610100 10161 20083 51008
KLVK - Livermore, California, USA
Distance from station: NNE 31mi, 51km
Updated: Sat, 24-Feb-2024 11:53am CST
Clear
Clear
 Wind from WSW
Wind: WSW 5 mph , 7 km/h
Temperature: 55°F , 13°C
Dew Point: 45°F , 7°C
Humidity: 67%
Barometer: 30.08 inHg , 1018.6 hPa
Clouds: Clear
Visibility: 10 miles , 16 km
2024/02/24 17:53 KLVK 241753Z 25004KT 10SM CLR 13/07 A3008 RMK AO2 SLP184 T01330067 10133 20050 51005